createdAt,value
2023-01-17T00:02:46.774Z,5.50
2023-01-17T00:07:07.217Z,5.50
2023-01-17T00:11:11.928Z,5.50
2023-01-17T00:15:14.743Z,5.50
2023-01-17T00:19:34.796Z,5.60
2023-01-17T00:23:55.172Z,5.60
2023-01-17T00:27:58.948Z,5.60
2023-01-17T00:32:00.703Z,5.60
2023-01-17T00:36:03.155Z,5.60
2023-01-17T00:44:26.922Z,5.50
2023-01-17T00:48:47.072Z,5.50
2023-01-17T00:53:07.287Z,5.50
2023-01-17T00:57:27.483Z,5.40
2023-01-17T01:01:49.315Z,5.30
2023-01-17T01:06:09.803Z,5.20
2023-01-17T01:10:30.328Z,5.10
2023-01-17T01:14:50.520Z,5.10
2023-01-17T01:19:12.707Z,5.00
2023-01-17T01:23:32.861Z,5.00
2023-01-17T01:27:52.988Z,4.90
2023-01-17T01:32:13.238Z,4.80
2023-01-17T01:36:17.398Z,4.80
2023-01-17T01:40:20.417Z,4.70
2023-01-17T01:44:41.989Z,4.70
2023-01-17T01:48:46.829Z,4.70
2023-01-17T01:52:53.396Z,4.70
2023-01-17T01:56:57.849Z,4.60
2023-01-17T02:01:00.950Z,4.60
2023-01-17T02:05:04.818Z,4.60
2023-01-17T02:09:09.949Z,4.60
2023-01-17T02:13:14.193Z,4.60
2023-01-17T02:17:23.370Z,4.60
2023-01-17T02:21:27.305Z,4.60
2023-01-17T02:25:48.867Z,4.60
2023-01-17T02:30:18.869Z,4.60
2023-01-17T02:34:25.831Z,4.60
2023-01-17T02:38:32.239Z,4.60
2023-01-17T02:42:38.410Z,4.60
2023-01-17T02:46:45.762Z,4.60
2023-01-17T02:50:58.894Z,4.60
2023-01-17T02:55:08.785Z,4.60
2023-01-17T02:59:15.345Z,4.60
2023-01-17T03:03:21.635Z,4.60
2023-01-17T03:07:26.911Z,4.60
2023-01-17T03:11:29.722Z,4.60
2023-01-17T03:15:32.562Z,4.60
2023-01-17T03:19:35.328Z,4.60
2023-01-17T03:23:39.579Z,4.60
2023-01-17T03:27:42.470Z,4.70
2023-01-17T03:31:45.323Z,4.70
2023-01-17T03:35:48.354Z,4.70
2023-01-17T03:39:52.541Z,4.70
2023-01-17T03:43:55.335Z,4.70
2023-01-17T03:47:58.140Z,4.70
2023-01-17T03:52:00.951Z,4.70
2023-01-17T03:56:05.257Z,4.70
2023-01-17T04:00:08.891Z,4.70
2023-01-17T04:04:11.686Z,4.70
2023-01-17T04:08:14.649Z,4.70
2023-01-17T04:12:19.127Z,4.70
2023-01-17T04:16:24.536Z,4.70
2023-01-17T04:20:30.954Z,4.70
2023-01-17T04:24:33.783Z,4.70
2023-01-17T04:28:38.062Z,4.60
2023-01-17T04:32:40.887Z,4.60
2023-01-17T04:36:43.714Z,4.60
2023-01-17T04:40:46.616Z,4.60
2023-01-17T04:44:50.857Z,4.50
2023-01-17T04:48:53.684Z,4.40
2023-01-17T04:52:56.505Z,4.40
2023-01-17T04:56:59.414Z,4.30
2023-01-17T05:01:04.232Z,4.20
2023-01-17T05:05:08.022Z,4.20
2023-01-17T05:09:10.824Z,4.10
2023-01-17T05:13:13.894Z,4.00
2023-01-17T05:17:18.069Z,3.90
2023-01-17T05:21:20.905Z,3.90
2023-01-17T05:25:24.104Z,3.80
2023-01-17T05:29:26.966Z,3.80
2023-01-17T05:33:31.206Z,3.70
2023-01-17T05:37:34.083Z,3.70
2023-01-17T05:41:37.073Z,3.70
2023-01-17T05:45:39.911Z,3.70
2023-01-17T05:49:45.954Z,3.60
2023-01-17T05:53:48.856Z,3.60
2023-01-17T05:57:51.847Z,3.60
2023-01-17T06:01:54.666Z,3.50
2023-01-17T06:05:58.824Z,3.50
2023-01-17T06:10:01.629Z,3.40
2023-01-17T06:14:04.448Z,3.40
2023-01-17T06:26:14.895Z,3.20
2023-01-17T06:30:17.997Z,3.20
2023-01-17T06:34:20.921Z,3.10
2023-01-17T06:38:23.767Z,3.10
2023-01-17T06:42:27.927Z,3.10
2023-01-17T06:50:34.543Z,3.00
2023-01-17T06:54:37.514Z,3.00
2023-01-17T06:58:41.840Z,3.00
2023-01-17T07:02:47.835Z,3.00
2023-01-17T07:06:50.729Z,3.00
2023-01-17T07:14:57.972Z,2.90
2023-01-17T07:19:00.774Z,2.90
2023-01-17T07:23:03.755Z,2.90
2023-01-17T07:27:08.136Z,2.90
2023-01-17T07:31:12.331Z,2.90
2023-01-17T07:35:15.273Z,2.90
2023-01-17T07:39:18.164Z,2.90
2023-01-17T07:43:21.030Z,2.90
2023-01-17T07:47:25.192Z,2.80
2023-01-17T07:51:28.063Z,2.90
2023-01-17T07:55:30.965Z,2.80
2023-01-17T07:59:34.791Z,2.80
2023-01-17T08:07:44.356Z,2.80
2023-01-17T08:11:47.233Z,2.70
2023-01-17T08:15:50.047Z,2.70
2023-01-17T08:19:53.196Z,2.70
2023-01-17T08:23:57.355Z,2.70
2023-01-17T08:28:00.245Z,2.70
2023-01-17T08:32:03.059Z,2.70
2023-01-17T08:36:05.992Z,2.70
2023-01-17T08:40:11.196Z,2.80
2023-01-17T08:44:14.036Z,2.80
2023-01-17T08:48:16.902Z,2.80
2023-01-17T08:52:19.723Z,2.90
2023-01-17T08:56:25.923Z,2.90
2023-01-17T09:00:29.946Z,3.00
2023-01-17T09:04:32.824Z,3.00
2023-01-17T09:08:36.151Z,3.10
2023-01-17T09:12:40.458Z,3.30
2023-01-17T09:16:43.486Z,3.70
2023-01-17T09:20:46.314Z,4.20
2023-01-17T09:28:53.861Z,5.10
2023-01-17T09:32:56.761Z,5.40
2023-01-17T09:36:59.602Z,5.60
2023-01-17T09:41:02.736Z,5.90
2023-01-17T09:45:15.664Z,6.00
2023-01-17T09:49:24.365Z,6.20
2023-01-17T09:53:27.462Z,6.30
2023-01-17T09:57:38.369Z,6.50
2023-01-17T10:01:45.974Z,6.60
2023-01-17T10:10:02.109Z,7.40
2023-01-17T10:14:16.696Z,7.90
2023-01-17T10:18:30.758Z,8.50
2023-01-17T10:22:43.344Z,9.00
2023-01-17T10:26:47.516Z,9.30
2023-01-17T10:30:51.134Z,9.60
2023-01-17T10:34:55.344Z,10.00
2023-01-17T10:39:00.319Z,10.20
2023-01-17T10:43:05.812Z,10.70
2023-01-17T10:51:17.256Z,11.60
2023-01-17T10:55:25.928Z,11.70
2023-01-17T10:59:30.767Z,12.00
2023-01-17T11:03:33.586Z,12.40
2023-01-17T11:07:39.988Z,12.50
2023-01-17T11:11:47.687Z,12.40
2023-01-17T11:15:52.504Z,12.50
2023-01-17T11:19:55.797Z,12.60
2023-01-17T11:24:09.679Z,12.60
2023-01-17T11:28:20.691Z,12.80
2023-01-17T11:32:31.171Z,12.90
2023-01-17T11:36:34.058Z,13.10
2023-01-17T11:40:42.217Z,13.00
2023-01-17T11:44:45.073Z,13.10
2023-01-17T11:48:48.813Z,13.20
2023-01-17T11:52:51.653Z,13.20
2023-01-17T11:56:59.111Z,13.30
2023-01-17T12:01:06.573Z,13.10
2023-01-17T12:05:15.475Z,12.60
2023-01-17T12:09:23.824Z,11.90
2023-01-17T12:13:52.155Z,11.60
2023-01-17T12:18:05.804Z,11.50
2023-01-17T12:22:18.716Z,10.90
2023-01-17T12:26:27.701Z,10.60
2023-01-17T12:30:39.184Z,10.50
2023-01-17T12:34:44.668Z,10.60
2023-01-17T12:38:48.377Z,10.70
2023-01-17T12:42:53.791Z,10.70
2023-01-17T12:47:00.786Z,10.60
2023-01-17T12:51:05.192Z,10.50
2023-01-17T12:55:11.745Z,10.40
2023-01-17T12:59:16.594Z,10.30
2023-01-17T13:03:27.262Z,10.20
2023-01-17T13:07:33.753Z,10.20
2023-01-17T13:11:41.123Z,10.00
2023-01-17T13:15:44.076Z,9.70
2023-01-17T13:19:51.438Z,9.30
2023-01-17T13:24:07.591Z,9.00
2023-01-17T13:28:16.953Z,8.60
2023-01-17T13:32:29.551Z,8.30
2023-01-17T13:36:39.782Z,8.00
2023-01-17T13:48:49.210Z,7.30
2023-01-17T13:52:57.985Z,6.90
2023-01-17T13:57:19.313Z,6.90
2023-01-17T14:01:49.702Z,6.70
2023-01-17T14:05:57.737Z,6.60
2023-01-17T14:10:02.144Z,6.50
2023-01-17T14:14:23.687Z,6.40
2023-01-17T14:18:31.569Z,6.20
2023-01-17T14:22:35.994Z,6.10
2023-01-17T14:26:44.240Z,6.00
2023-01-17T14:30:47.160Z,6.00
2023-01-17T14:34:51.293Z,5.80
2023-01-17T14:38:54.127Z,5.70
2023-01-17T14:43:01.424Z,5.60
2023-01-17T14:47:04.317Z,5.50
2023-01-17T14:51:12.764Z,5.50
2023-01-17T14:55:16.890Z,5.40
2023-01-17T14:59:23.801Z,5.40
2023-01-17T15:03:26.706Z,5.30
2023-01-17T15:07:31.633Z,5.30
2023-01-17T15:11:34.994Z,5.20
2023-01-17T15:15:40.823Z,5.10
2023-01-17T15:19:44.084Z,5.10
2023-01-17T15:23:48.340Z,5.00
2023-01-17T15:27:51.225Z,4.90
2023-01-17T15:31:58.243Z,4.80
2023-01-17T15:36:01.688Z,4.70
2023-01-17T15:40:06.653Z,4.60
2023-01-17T15:44:22.028Z,4.60
2023-01-17T15:48:37.686Z,4.50
2023-01-17T15:52:49.208Z,4.40
2023-01-17T15:57:02.101Z,4.40
2023-01-17T16:01:14.738Z,4.30
2023-01-17T16:05:44.581Z,4.20
2023-01-17T16:09:48.942Z,4.10
2023-01-17T16:13:52.016Z,4.00
2023-01-17T16:17:57.015Z,4.00
2023-01-17T16:22:02.814Z,4.00
2023-01-17T16:26:10.811Z,3.90
2023-01-17T16:30:16.258Z,3.80
2023-01-17T16:34:19.106Z,3.70
2023-01-17T16:38:21.893Z,3.70
2023-01-17T16:42:28.442Z,3.60
2023-01-17T16:46:31.468Z,3.50
2023-01-17T16:50:34.373Z,3.40
2023-01-17T16:54:37.161Z,3.30
2023-01-17T16:58:41.788Z,3.20
2023-01-17T17:02:44.684Z,3.20
2023-01-17T17:06:47.520Z,3.10
2023-01-17T17:10:50.330Z,3.10
2023-01-17T17:14:54.519Z,3.00
2023-01-17T17:18:58.046Z,2.90
2023-01-17T17:23:00.862Z,2.90
2023-01-17T17:31:11.004Z,2.80
2023-01-17T17:35:13.869Z,2.70
2023-01-17T17:39:16.696Z,2.70
2023-01-17T17:43:19.480Z,2.60
2023-01-17T17:47:24.114Z,2.60
2023-01-17T17:51:27.557Z,2.50
2023-01-17T17:55:30.376Z,2.50
2023-01-17T17:59:33.183Z,2.40
2023-01-17T18:03:37.337Z,2.40
2023-01-17T18:07:40.145Z,2.40
2023-01-17T18:19:50.722Z,2.30
2023-01-17T18:23:54.692Z,2.10
2023-01-17T18:27:57.515Z,2.00
2023-01-17T18:32:00.402Z,1.90
2023-01-17T18:36:05.059Z,1.90
2023-01-17T18:40:08.200Z,1.80
2023-01-17T18:44:11.318Z,1.70
2023-01-17T18:48:14.154Z,1.70
2023-01-17T18:52:19.520Z,1.60
2023-01-17T18:56:23.378Z,1.60
2023-01-17T19:00:26.321Z,1.60
2023-01-17T19:04:31.807Z,1.50
2023-01-17T19:08:36.086Z,1.50
2023-01-17T19:12:38.991Z,1.50
2023-01-17T19:16:44.051Z,1.50
2023-01-17T19:20:47.066Z,1.40
2023-01-17T19:24:53.131Z,1.40
2023-01-17T19:28:56.905Z,1.30
2023-01-17T19:32:59.836Z,1.30
2023-01-17T19:37:03.024Z,1.30
2023-01-17T19:41:10.785Z,1.30
2023-01-17T19:45:14.205Z,1.20
2023-01-17T19:49:20.664Z,1.20
2023-01-17T19:53:24.111Z,1.20
2023-01-17T19:57:28.448Z,1.10
2023-01-17T20:01:32.391Z,1.10
2023-01-17T20:05:35.809Z,1.10
2023-01-17T20:09:38.606Z,1.00
2023-01-17T20:13:43.058Z,1.00
2023-01-17T20:17:45.915Z,1.00
2023-01-17T20:21:48.763Z,1.00
2023-01-17T20:25:58.956Z,0.90
2023-01-17T20:30:18.963Z,0.90
2023-01-17T20:34:25.911Z,0.90
2023-01-17T20:38:29.914Z,0.90
2023-01-17T20:42:32.737Z,0.90
2023-01-17T20:46:40.412Z,0.90
2023-01-17T20:50:43.571Z,0.90
2023-01-17T20:54:48.504Z,0.80
2023-01-17T20:58:51.816Z,0.80
2023-01-17T21:02:56.034Z,0.70
2023-01-17T21:06:58.947Z,0.70
2023-01-17T21:11:01.908Z,0.60
2023-01-17T21:15:05.027Z,0.60
2023-01-17T21:19:12.032Z,0.60
2023-01-17T21:23:18.007Z,0.50
2023-01-17T21:27:21.670Z,0.50
2023-01-17T21:31:25.860Z,0.50
2023-01-17T21:35:31.707Z,0.50
2023-01-17T21:39:34.606Z,0.50
2023-01-17T21:43:38.016Z,0.40
2023-01-17T21:47:44.603Z,0.40
2023-01-17T21:52:06.233Z,0.40
2023-01-17T21:56:29.256Z,0.30
2023-01-17T22:00:32.075Z,0.30
2023-01-17T22:04:34.972Z,0.30
2023-01-17T22:08:39.646Z,0.30
2023-01-17T22:12:42.894Z,0.30
2023-01-17T22:16:46.076Z,0.30
2023-01-17T22:20:49.618Z,0.30
2023-01-17T22:24:53.982Z,0.20
2023-01-17T22:28:57.208Z,0.20
2023-01-17T22:33:00.157Z,0.20
2023-01-17T22:37:04.748Z,0.20
2023-01-17T22:41:10.055Z,0.20
2023-01-17T22:45:12.845Z,0.10
2023-01-17T22:49:17.145Z,0.10
2023-01-17T22:53:20.009Z,0.00
2023-01-17T22:57:24.308Z,0.00
2023-01-17T23:01:27.742Z,0.00
2023-01-17T23:05:30.607Z,0.00
2023-01-17T23:09:33.438Z,0.00
2023-01-17T23:13:38.531Z,0.00
2023-01-17T23:17:58.702Z,0.00
2023-01-17T23:22:17.670Z,0.00
2023-01-17T23:26:20.576Z,-0.10
2023-01-17T23:30:26.018Z,-0.10
2023-01-17T23:34:28.976Z,-0.20
2023-01-17T23:38:33.954Z,-0.20
2023-01-17T23:42:54.430Z,-0.20
2023-01-17T23:46:58.871Z,-0.30
2023-01-17T23:51:02.811Z,-0.30
2023-01-17T23:55:06.041Z,-0.30
2023-01-17T23:59:09.076Z,-0.30
